createdAt,value
2018-02-14T00:00:56.183Z,20.00
2018-02-14T00:02:01.269Z,20.00
2018-02-14T00:03:06.497Z,20.00
2018-02-14T00:04:11.423Z,20.00
2018-02-14T00:05:16.358Z,20.00
2018-02-14T00:06:21.474Z,20.00
2018-02-14T00:07:26.461Z,20.00
2018-02-14T00:08:31.527Z,20.00
2018-02-14T00:09:36.540Z,20.00
2018-02-14T00:10:41.420Z,20.00
2018-02-14T00:11:46.207Z,20.00
2018-02-14T00:12:50.967Z,20.00
2018-02-14T00:13:55.936Z,20.00
2018-02-14T00:15:00.913Z,20.00
2018-02-14T00:16:05.804Z,20.00
2018-02-14T00:17:10.829Z,20.00
2018-02-14T00:18:16.389Z,20.00
2018-02-14T00:19:22.050Z,20.00
2018-02-14T00:20:27.058Z,20.00
2018-02-14T00:21:32.874Z,20.00
2018-02-14T00:22:37.856Z,20.00
2018-02-14T00:23:42.708Z,20.00
2018-02-14T00:24:47.746Z,20.00
2018-02-14T00:25:52.537Z,20.00
2018-02-14T00:26:57.429Z,20.00
2018-02-14T00:28:18.802Z,20.00
2018-02-14T00:29:23.903Z,20.00
2018-02-14T00:30:28.643Z,20.00
2018-02-14T00:31:33.500Z,20.00
2018-02-14T00:32:38.468Z,20.00
2018-02-14T00:33:43.371Z,20.00
2018-02-14T00:34:48.276Z,20.00
2018-02-14T00:35:53.027Z,20.00
2018-02-14T00:36:58.312Z,20.00
2018-02-14T00:38:03.174Z,20.00
2018-02-14T00:39:08.119Z,20.00
2018-02-14T00:40:13.945Z,20.00
2018-02-14T00:41:18.865Z,20.00
2018-02-14T00:42:23.996Z,20.00
2018-02-14T00:43:28.963Z,20.00
2018-02-14T00:44:33.906Z,20.00
2018-02-14T00:45:38.859Z,20.00
2018-02-14T00:46:43.663Z,20.00
2018-02-14T00:47:48.523Z,20.00
2018-02-14T00:48:53.386Z,20.00
2018-02-14T00:49:58.191Z,20.00
2018-02-14T00:51:03.011Z,20.00
2018-02-14T00:52:07.772Z,20.00
2018-02-14T00:53:13.191Z,20.00
2018-02-14T00:54:18.023Z,20.00
2018-02-14T00:55:22.930Z,20.00
2018-02-14T00:56:28.386Z,20.00
2018-02-14T00:57:33.219Z,20.00
2018-02-14T00:58:38.006Z,20.00
2018-02-14T00:59:42.781Z,20.00
2018-02-14T01:00:47.752Z,20.00
2018-02-14T01:01:52.675Z,20.00
2018-02-14T01:02:57.452Z,20.00
2018-02-14T01:04:02.291Z,20.00
2018-02-14T01:05:07.150Z,20.00
2018-02-14T01:06:12.686Z,20.00
2018-02-14T01:07:17.645Z,20.00
2018-02-14T01:08:22.778Z,20.00
2018-02-14T01:09:28.391Z,20.00
2018-02-14T01:10:33.286Z,20.00
2018-02-14T01:11:38.080Z,20.00
2018-02-14T01:12:43.079Z,20.00
2018-02-14T01:13:47.863Z,20.00
2018-02-14T01:14:52.587Z,20.00
2018-02-14T01:15:57.329Z,20.00
2018-02-14T01:17:02.132Z,20.00
2018-02-14T01:18:06.935Z,20.00
2018-02-14T01:19:11.864Z,20.00
2018-02-14T01:20:16.701Z,20.00
2018-02-14T01:21:21.693Z,20.00
2018-02-14T01:22:26.434Z,20.00
2018-02-14T01:23:31.821Z,20.00
2018-02-14T01:24:36.671Z,19.90
2018-02-14T01:25:41.403Z,20.00
2018-02-14T01:26:46.195Z,20.00
2018-02-14T01:27:51.015Z,20.00
2018-02-14T01:28:55.762Z,20.00
2018-02-14T01:30:00.556Z,20.00
2018-02-14T01:31:05.490Z,20.00
2018-02-14T01:32:10.422Z,20.00
2018-02-14T01:33:15.287Z,20.00
2018-02-14T01:34:20.148Z,20.00
2018-02-14T01:35:24.942Z,20.00
2018-02-14T01:36:30.613Z,20.00
2018-02-14T01:37:35.573Z,20.00
2018-02-14T01:38:40.444Z,20.00
2018-02-14T01:39:45.211Z,20.00
2018-02-14T01:40:50.233Z,20.00
2018-02-14T01:41:55.144Z,20.00
2018-02-14T01:42:59.850Z,20.00
2018-02-14T01:44:04.749Z,20.00
2018-02-14T01:45:09.632Z,20.00
2018-02-14T01:46:14.570Z,20.00
2018-02-14T01:47:19.496Z,20.00
2018-02-14T01:48:24.283Z,20.00
2018-02-14T01:49:29.212Z,20.00
2018-02-14T01:50:34.166Z,20.00
2018-02-14T01:51:38.907Z,20.00
2018-02-14T01:52:43.853Z,20.00
2018-02-14T01:53:48.734Z,20.00
2018-02-14T01:54:53.665Z,20.00
2018-02-14T01:55:58.522Z,20.00
2018-02-14T01:57:03.494Z,20.00
2018-02-14T01:58:08.573Z,20.00
2018-02-14T01:59:13.664Z,20.00
2018-02-14T02:00:18.866Z,20.00
2018-02-14T02:01:23.745Z,20.00
2018-02-14T02:02:28.850Z,20.00
2018-02-14T02:03:33.869Z,20.00
2018-02-14T02:04:38.697Z,20.00
2018-02-14T02:05:43.712Z,20.00
2018-02-14T02:06:48.719Z,20.00
2018-02-14T02:07:53.561Z,20.00
2018-02-14T02:08:58.352Z,20.00
2018-02-14T02:10:03.254Z,20.00
2018-02-14T02:11:08.228Z,20.00
2018-02-14T02:12:13.225Z,20.00
2018-02-14T02:13:18.306Z,20.00
2018-02-14T02:14:23.406Z,20.00
2018-02-14T02:15:28.238Z,20.00
2018-02-14T02:16:33.410Z,20.00
2018-02-14T02:17:38.333Z,20.00
2018-02-14T02:18:43.121Z,20.00
2018-02-14T02:19:48.033Z,20.00
2018-02-14T02:20:52.808Z,20.00
2018-02-14T02:21:57.894Z,20.00
2018-02-14T02:23:02.883Z,20.00
2018-02-14T02:24:07.795Z,20.00
2018-02-14T02:25:12.704Z,20.00
2018-02-14T02:26:17.655Z,20.00
2018-02-14T02:27:22.752Z,20.00
2018-02-14T02:28:27.598Z,20.00
2018-02-14T02:29:32.420Z,20.00
2018-02-14T02:30:37.355Z,20.00
2018-02-14T02:31:42.145Z,20.00
2018-02-14T02:32:47.126Z,20.00
2018-02-14T02:33:51.886Z,20.00
2018-02-14T02:34:56.941Z,20.00
2018-02-14T02:36:01.728Z,20.00
2018-02-14T02:37:06.477Z,20.00
2018-02-14T02:38:11.308Z,20.00
2018-02-14T02:39:16.257Z,20.00
2018-02-14T02:40:21.349Z,20.00
2018-02-14T02:41:26.323Z,20.00
2018-02-14T02:42:31.448Z,20.00
2018-02-14T02:43:36.459Z,20.00
2018-02-14T02:44:41.428Z,20.00
2018-02-14T02:45:46.228Z,20.00
2018-02-14T02:46:51.100Z,20.00
2018-02-14T02:47:55.874Z,20.00
2018-02-14T02:49:00.639Z,20.00
2018-02-14T02:50:05.425Z,20.00
2018-02-14T02:51:10.351Z,20.00
2018-02-14T02:52:15.188Z,20.00
2018-02-14T02:53:19.919Z,20.00
2018-02-14T02:54:24.817Z,20.00
2018-02-14T02:55:29.589Z,20.00
2018-02-14T02:56:34.506Z,20.00
2018-02-14T02:57:39.387Z,20.00
2018-02-14T02:58:44.147Z,20.00
2018-02-14T02:59:48.869Z,20.00
2018-02-14T03:00:53.641Z,20.00
2018-02-14T03:01:58.342Z,20.00
2018-02-14T03:03:03.147Z,20.00
2018-02-14T03:04:08.326Z,20.00
2018-02-14T03:05:13.045Z,20.00
2018-02-14T03:06:17.980Z,20.00
2018-02-14T03:07:22.777Z,20.00
2018-02-14T03:08:27.631Z,20.00
2018-02-14T03:09:32.582Z,20.00
2018-02-14T03:10:37.481Z,20.00
2018-02-14T03:11:42.263Z,20.00
2018-02-14T03:12:47.023Z,20.00
2018-02-14T03:13:51.961Z,20.00
2018-02-14T03:14:56.737Z,20.00
2018-02-14T03:16:01.630Z,20.00
2018-02-14T03:17:06.629Z,20.00
2018-02-14T03:18:11.394Z,20.00
2018-02-14T03:19:16.221Z,20.00
2018-02-14T03:20:20.952Z,20.00
2018-02-14T03:21:25.741Z,20.00
2018-02-14T03:22:30.615Z,20.00
2018-02-14T03:23:35.397Z,20.00
2018-02-14T03:24:40.383Z,20.00
2018-02-14T03:25:45.286Z,20.00
2018-02-14T03:26:50.906Z,20.00
2018-02-14T03:27:55.891Z,20.00
2018-02-14T03:29:00.756Z,20.00
2018-02-14T03:30:05.831Z,20.00
2018-02-14T03:31:10.732Z,20.00
2018-02-14T03:32:15.534Z,20.00
2018-02-14T03:33:20.506Z,20.00
2018-02-14T03:34:25.250Z,20.00
2018-02-14T03:35:30.060Z,20.00
2018-02-14T03:36:35.063Z,20.00
2018-02-14T03:37:39.838Z,20.00
2018-02-14T03:38:44.532Z,20.00
2018-02-14T03:39:49.236Z,20.00
2018-02-14T03:40:54.043Z,20.00
2018-02-14T03:41:59.023Z,20.00
2018-02-14T03:43:03.975Z,20.00
2018-02-14T03:44:08.743Z,20.00
2018-02-14T03:45:13.522Z,20.00
2018-02-14T03:46:18.361Z,20.00
2018-02-14T03:47:23.066Z,20.00
2018-02-14T03:48:27.943Z,20.00
2018-02-14T03:49:32.756Z,20.00
2018-02-14T03:50:37.631Z,20.00
2018-02-14T03:51:42.536Z,20.00
2018-02-14T03:52:47.364Z,20.00
2018-02-14T03:53:52.154Z,20.00
2018-02-14T03:54:57.063Z,20.00
2018-02-14T03:56:01.953Z,20.00
2018-02-14T03:57:06.719Z,20.00
2018-02-14T03:58:11.579Z,20.00
2018-02-14T03:59:16.297Z,20.00
2018-02-14T04:00:21.058Z,20.00
2018-02-14T04:01:25.759Z,20.00
2018-02-14T04:02:30.728Z,20.00
2018-02-14T04:03:35.722Z,20.00
2018-02-14T04:04:40.583Z,20.00
2018-02-14T04:05:45.316Z,20.00
2018-02-14T04:06:50.280Z,20.00
2018-02-14T04:07:55.112Z,20.00
2018-02-14T04:09:00.234Z,20.00
2018-02-14T04:10:05.206Z,20.00
2018-02-14T04:11:10.131Z,20.00
2018-02-14T04:12:15.060Z,20.00
2018-02-14T04:13:20.018Z,20.00
2018-02-14T04:14:25.306Z,20.00
2018-02-14T04:15:30.123Z,20.00
2018-02-14T04:16:34.936Z,20.00
2018-02-14T04:17:39.691Z,20.00
2018-02-14T04:18:44.465Z,20.00
2018-02-14T04:19:49.483Z,20.00
2018-02-14T04:20:54.194Z,20.00
2018-02-14T04:21:59.273Z,20.00
2018-02-14T04:23:04.296Z,20.00
2018-02-14T04:24:09.133Z,20.00
2018-02-14T04:25:14.043Z,20.00
2018-02-14T04:26:18.835Z,20.00
2018-02-14T04:27:24.350Z,20.00
2018-02-14T04:28:29.159Z,20.00
2018-02-14T04:29:33.965Z,20.00
2018-02-14T04:30:38.961Z,20.00
2018-02-14T04:31:43.676Z,20.00
2018-02-14T04:32:48.509Z,20.00
2018-02-14T04:33:53.329Z,20.00
2018-02-14T04:34:58.270Z,20.00
2018-02-14T04:36:03.213Z,19.90
2018-02-14T04:37:07.986Z,19.90
2018-02-14T04:38:12.989Z,20.00
2018-02-14T04:39:17.841Z,20.00
2018-02-14T04:40:22.805Z,19.90
2018-02-14T04:41:27.549Z,20.00
2018-02-14T04:42:35.512Z,20.00
2018-02-14T04:43:40.330Z,20.00
2018-02-14T04:44:45.250Z,19.90
2018-02-14T04:45:50.062Z,20.00
2018-02-14T04:46:55.132Z,20.00
2018-02-14T04:48:00.000Z,19.90
2018-02-14T04:49:04.881Z,20.00
2018-02-14T04:50:09.769Z,20.00
2018-02-14T04:51:14.633Z,20.00
2018-02-14T04:52:19.451Z,19.90
2018-02-14T04:53:25.075Z,19.90
2018-02-14T04:54:30.690Z,19.90
2018-02-14T04:55:35.596Z,19.90
2018-02-14T04:56:40.533Z,19.90
2018-02-14T04:57:45.341Z,19.90
2018-02-14T04:58:50.214Z,19.90
2018-02-14T04:59:55.022Z,19.90
2018-02-14T05:00:59.855Z,19.90
2018-02-14T05:02:04.844Z,19.90
2018-02-14T05:03:09.618Z,19.90
2018-02-14T05:04:14.480Z,19.90
2018-02-14T05:05:19.287Z,20.00
2018-02-14T05:06:23.985Z,19.90
2018-02-14T05:07:28.983Z,19.90
2018-02-14T05:08:33.907Z,19.90
2018-02-14T05:09:38.706Z,20.00
2018-02-14T05:10:43.654Z,19.90
2018-02-14T05:11:48.512Z,19.90
2018-02-14T05:12:53.279Z,19.90
2018-02-14T05:13:58.107Z,19.90
2018-02-14T05:15:03.221Z,19.90
2018-02-14T05:16:08.084Z,19.90
2018-02-14T05:17:13.026Z,19.90
2018-02-14T05:18:17.780Z,19.90
2018-02-14T05:19:22.821Z,19.90
2018-02-14T05:20:27.867Z,19.90
2018-02-14T05:21:32.820Z,19.90
2018-02-14T05:22:37.752Z,19.90
2018-02-14T05:23:42.699Z,20.00
2018-02-14T05:24:47.578Z,19.90
2018-02-14T05:25:53.168Z,19.90
2018-02-14T05:26:58.098Z,19.90
2018-02-14T05:28:02.836Z,19.90
2018-02-14T05:29:07.802Z,19.90
2018-02-14T05:30:12.622Z,19.90
2018-02-14T05:31:17.399Z,20.00
2018-02-14T05:32:22.336Z,19.90
2018-02-14T05:33:27.184Z,19.90
2018-02-14T05:34:32.180Z,19.90
2018-02-14T05:35:36.943Z,19.90
2018-02-14T05:36:41.732Z,19.90
2018-02-14T05:37:46.640Z,19.90
2018-02-14T05:38:51.643Z,19.90
2018-02-14T05:39:56.547Z,19.90
2018-02-14T05:41:01.356Z,19.90
2018-02-14T05:42:06.262Z,19.90
2018-02-14T05:43:11.219Z,19.90
2018-02-14T05:44:15.992Z,19.90
2018-02-14T05:45:20.836Z,19.90
2018-02-14T05:46:26.405Z,19.90
2018-02-14T05:47:31.268Z,19.90
2018-02-14T05:48:36.361Z,19.90
2018-02-14T05:49:41.111Z,19.90
2018-02-14T05:50:45.857Z,19.90
2018-02-14T05:51:50.915Z,19.90
2018-02-14T05:52:55.762Z,19.90
2018-02-14T05:54:01.046Z,19.90
2018-02-14T05:55:05.793Z,19.90
2018-02-14T05:56:10.805Z,19.90
2018-02-14T05:57:15.859Z,19.90
2018-02-14T05:58:20.644Z,19.90
2018-02-14T05:59:25.626Z,19.90
2018-02-14T06:00:30.421Z,20.00
2018-02-14T06:01:35.269Z,20.00
2018-02-14T06:02:40.249Z,19.90
2018-02-14T06:03:45.137Z,19.90
2018-02-14T06:04:50.612Z,20.00
2018-02-14T06:05:55.758Z,19.90
2018-02-14T06:07:00.895Z,19.90
2018-02-14T06:08:05.961Z,19.90
2018-02-14T06:09:11.033Z,19.90
2018-02-14T06:10:15.872Z,19.90
2018-02-14T06:11:20.717Z,19.90
2018-02-14T06:12:25.596Z,19.90
2018-02-14T06:13:30.553Z,20.00
2018-02-14T06:14:35.864Z,19.90
2018-02-14T06:15:40.843Z,19.90
2018-02-14T06:16:46.037Z,19.90
2018-02-14T06:17:51.480Z,19.90
2018-02-14T06:18:57.191Z,19.90
2018-02-14T06:20:02.332Z,19.90
2018-02-14T06:21:07.669Z,19.90
2018-02-14T06:22:13.304Z,19.90
2018-02-14T06:23:18.303Z,19.90
2018-02-14T06:24:23.181Z,19.90
2018-02-14T06:25:27.942Z,19.90
2018-02-14T06:26:32.666Z,19.90
2018-02-14T06:27:37.426Z,19.80
2018-02-14T06:28:42.158Z,19.90
2018-02-14T06:29:46.935Z,19.80
2018-02-14T06:30:51.805Z,19.80
2018-02-14T06:31:56.681Z,19.80
2018-02-14T06:33:02.449Z,19.80
2018-02-14T06:34:07.370Z,19.80
2018-02-14T06:35:12.081Z,19.80
2018-02-14T06:36:16.981Z,19.80
2018-02-14T06:37:21.896Z,19.80
2018-02-14T06:38:26.732Z,19.80
2018-02-14T06:39:31.513Z,19.80
2018-02-14T06:40:36.348Z,19.80
2018-02-14T06:41:41.107Z,19.80
2018-02-14T06:42:45.849Z,19.80
2018-02-14T06:43:50.630Z,19.80
2018-02-14T06:44:55.355Z,19.80
2018-02-14T06:46:00.354Z,19.80
2018-02-14T06:47:05.545Z,19.80
2018-02-14T06:48:10.259Z,19.80
2018-02-14T06:49:15.293Z,19.80
2018-02-14T06:50:20.097Z,19.60
2018-02-14T06:51:24.892Z,19.30
2018-02-14T06:52:29.656Z,19.00
2018-02-14T06:53:34.455Z,18.70
2018-02-14T06:54:40.156Z,18.40
2018-02-14T06:55:45.063Z,18.20
2018-02-14T06:56:49.979Z,18.10
2018-02-14T06:57:55.015Z,17.90
2018-02-14T06:59:00.031Z,17.80
2018-02-14T07:00:05.784Z,17.60
2018-02-14T07:01:10.683Z,17.50
2018-02-14T07:02:16.223Z,17.40
2018-02-14T07:03:22.162Z,17.30
2018-02-14T07:04:27.279Z,17.30
2018-02-14T07:05:32.209Z,17.20
2018-02-14T07:06:37.880Z,17.20
2018-02-14T07:07:42.994Z,17.20
2018-02-14T07:08:47.785Z,17.30
2018-02-14T07:09:52.715Z,17.40
2018-02-14T07:10:57.621Z,17.60
2018-02-14T07:12:02.434Z,17.80
2018-02-14T07:13:08.003Z,17.90
2018-02-14T07:14:12.908Z,18.10
2018-02-14T07:15:17.897Z,18.20
2018-02-14T07:16:22.841Z,18.30
2018-02-14T07:17:27.838Z,18.40
2018-02-14T07:18:32.987Z,18.50
2018-02-14T07:19:37.926Z,18.50
2018-02-14T07:20:42.783Z,18.60
2018-02-14T07:21:47.734Z,18.80
2018-02-14T07:22:53.183Z,18.80
2018-02-14T07:23:58.328Z,18.90
2018-02-14T07:25:03.461Z,18.90
2018-02-14T07:26:08.214Z,19.00
2018-02-14T07:27:13.156Z,19.00
2018-02-14T07:28:17.974Z,19.10
2018-02-14T07:29:23.585Z,19.20
2018-02-14T07:30:28.557Z,19.20
2018-02-14T07:31:34.059Z,19.20
2018-02-14T07:32:39.070Z,19.30
2018-02-14T07:33:43.844Z,19.30
2018-02-14T07:34:48.619Z,19.40
2018-02-14T07:35:53.614Z,19.40
2018-02-14T07:36:58.458Z,19.40
2018-02-14T07:38:03.328Z,19.50
2018-02-14T07:39:08.343Z,19.50
2018-02-14T07:40:13.304Z,19.50
2018-02-14T07:41:18.292Z,19.60
2018-02-14T07:42:24.903Z,19.60
2018-02-14T07:43:31.566Z,19.70
2018-02-14T07:44:37.949Z,19.70
2018-02-14T07:45:44.333Z,19.80
2018-02-14T07:46:50.729Z,19.80
2018-02-14T07:47:57.394Z,19.90
2018-02-14T07:49:04.252Z,19.80
2018-02-14T07:50:10.546Z,19.80
2018-02-14T07:51:17.005Z,19.80
2018-02-14T07:52:23.774Z,19.80
2018-02-14T07:53:30.344Z,19.80
2018-02-14T07:54:36.819Z,19.80
2018-02-14T07:55:43.408Z,19.90
2018-02-14T07:56:49.763Z,19.90
2018-02-14T07:57:56.253Z,19.90
2018-02-14T07:59:14.466Z,19.90
2018-02-14T08:00:21.064Z,19.90
2018-02-14T08:01:27.522Z,20.00
2018-02-14T08:02:34.191Z,20.00
2018-02-14T08:03:40.784Z,20.00
2018-02-14T08:04:47.404Z,20.00
2018-02-14T08:05:54.000Z,20.00
2018-02-14T08:07:00.379Z,20.00
2018-02-14T08:08:06.885Z,20.10
2018-02-14T08:09:13.244Z,20.10
2018-02-14T08:10:18.330Z,20.10
2018-02-14T08:11:23.310Z,20.20
2018-02-14T08:12:31.301Z,20.20
2018-02-14T08:13:36.184Z,20.20
2018-02-14T08:14:41.085Z,20.30
2018-02-14T08:15:45.925Z,20.30
2018-02-14T08:16:50.929Z,20.30
2018-02-14T08:17:55.960Z,20.40
2018-02-14T08:19:00.737Z,20.40
2018-02-14T08:20:05.523Z,20.40
2018-02-14T08:21:11.921Z,20.40
2018-02-14T08:22:16.767Z,20.40
2018-02-14T08:23:21.600Z,20.40
2018-02-14T08:24:26.886Z,20.40
2018-02-14T08:25:31.974Z,20.40
2018-02-14T08:26:37.123Z,20.50
2018-02-14T08:27:42.173Z,20.40
2018-02-14T08:28:47.230Z,20.50
2018-02-14T08:29:52.463Z,20.50
2018-02-14T08:30:57.571Z,20.40
2018-02-14T08:32:02.669Z,20.50
2018-02-14T08:33:07.805Z,20.50
2018-02-14T08:34:13.164Z,20.50
2018-02-14T08:35:18.146Z,20.50
2018-02-14T08:36:23.124Z,20.50
2018-02-14T08:37:28.234Z,20.40
2018-02-14T08:38:33.143Z,20.40
2018-02-14T08:39:38.122Z,20.40
2018-02-14T08:40:43.018Z,20.40
2018-02-14T08:41:48.120Z,20.40
2018-02-14T08:42:53.034Z,20.40
2018-02-14T08:43:58.829Z,20.50
2018-02-14T08:45:04.359Z,20.50
2018-02-14T08:46:09.445Z,20.50
2018-02-14T08:47:14.426Z,20.50
2018-02-14T08:48:19.258Z,20.50
2018-02-14T08:49:24.326Z,20.50
2018-02-14T08:50:29.130Z,20.40
2018-02-14T08:51:34.081Z,20.40
2018-02-14T08:52:39.262Z,20.30
2018-02-14T08:53:47.047Z,20.30
2018-02-14T08:54:52.102Z,20.30
2018-02-14T08:55:56.991Z,20.30
2018-02-14T08:57:01.809Z,20.30
2018-02-14T08:58:06.600Z,20.30
2018-02-14T08:59:11.385Z,20.20
2018-02-14T09:00:17.013Z,20.20
2018-02-14T09:01:21.795Z,20.20
2018-02-14T09:02:26.704Z,20.20
2018-02-14T09:03:31.797Z,20.20
2018-02-14T09:04:36.666Z,20.20
2018-02-14T09:05:41.671Z,20.20
2018-02-14T09:06:46.680Z,20.20
2018-02-14T09:07:51.577Z,20.20
2018-02-14T09:08:56.413Z,20.20
2018-02-14T09:10:01.268Z,20.20
2018-02-14T09:11:06.094Z,20.20
2018-02-14T09:12:11.203Z,20.20
2018-02-14T09:13:16.106Z,20.20
2018-02-14T09:14:20.917Z,20.20
2018-02-14T09:15:25.802Z,20.20
2018-02-14T09:16:30.559Z,20.10
2018-02-14T09:17:35.531Z,20.20
2018-02-14T09:18:40.467Z,20.20
2018-02-14T09:19:45.534Z,20.20
2018-02-14T09:20:50.345Z,20.20
2018-02-14T09:21:55.227Z,20.20
2018-02-14T09:23:00.058Z,20.10
2018-02-14T09:24:04.910Z,20.20
2018-02-14T09:25:09.877Z,20.20
2018-02-14T09:26:15.304Z,20.20
2018-02-14T09:27:20.072Z,20.20
2018-02-14T09:28:24.903Z,20.20
2018-02-14T09:29:29.783Z,20.10
2018-02-14T09:30:34.620Z,20.10
2018-02-14T09:31:39.520Z,20.20
2018-02-14T09:32:44.529Z,20.20
2018-02-14T09:33:49.434Z,20.20
2018-02-14T09:34:54.301Z,20.20
2018-02-14T09:35:59.282Z,20.20
2018-02-14T09:37:04.106Z,20.10
2018-02-14T09:38:09.082Z,20.20
2018-02-14T09:39:14.135Z,20.10
2018-02-14T09:40:19.332Z,20.10
2018-02-14T09:41:24.360Z,20.10
2018-02-14T09:42:29.325Z,20.10
2018-02-14T09:43:34.083Z,20.10
2018-02-14T09:44:38.932Z,20.10
2018-02-14T09:45:43.830Z,20.10
2018-02-14T09:46:48.739Z,20.10
2018-02-14T09:47:53.581Z,20.10
2018-02-14T09:48:58.402Z,20.10
2018-02-14T09:50:03.190Z,20.10
2018-02-14T09:51:08.098Z,20.10
2018-02-14T09:52:13.098Z,20.10
2018-02-14T09:53:18.021Z,20.10
2018-02-14T09:54:23.070Z,20.10
2018-02-14T09:55:28.141Z,20.10
2018-02-14T09:56:32.874Z,20.10
2018-02-14T09:57:37.812Z,20.10
2018-02-14T09:58:42.855Z,20.10
2018-02-14T09:59:47.815Z,20.10
2018-02-14T10:00:52.642Z,20.10
2018-02-14T10:01:57.491Z,20.10
2018-02-14T10:03:02.335Z,20.10
2018-02-14T10:04:07.734Z,20.10
2018-02-14T10:05:12.681Z,20.10
2018-02-14T10:06:17.623Z,20.10
2018-02-14T10:07:22.600Z,20.10
2018-02-14T10:08:27.604Z,20.10
2018-02-14T10:09:33.100Z,20.10
2018-02-14T10:10:38.025Z,20.10
2018-02-14T10:11:42.923Z,20.10
2018-02-14T10:12:47.672Z,20.10
2018-02-14T10:13:52.463Z,20.10
2018-02-14T10:14:57.235Z,20.10
2018-02-14T10:16:02.052Z,20.10
2018-02-14T10:17:07.037Z,20.10
2018-02-14T10:18:11.814Z,20.10
2018-02-14T10:19:16.712Z,20.10
2018-02-14T10:20:21.514Z,20.10
2018-02-14T10:21:26.301Z,20.10
2018-02-14T10:22:31.034Z,20.10
2018-02-14T10:23:35.879Z,20.10
2018-02-14T10:24:40.913Z,20.10
2018-02-14T10:25:45.962Z,20.10
2018-02-14T10:26:51.305Z,20.10
2018-02-14T10:27:56.118Z,20.10
2018-02-14T10:29:00.900Z,20.10
2018-02-14T10:30:05.915Z,20.10
2018-02-14T10:31:10.749Z,20.10
2018-02-14T10:32:15.629Z,20.10
2018-02-14T10:33:20.626Z,20.10
2018-02-14T10:34:25.519Z,20.10
2018-02-14T10:35:30.307Z,20.10
2018-02-14T10:36:35.259Z,20.10
2018-02-14T10:37:40.124Z,20.10
2018-02-14T10:38:45.075Z,20.10
2018-02-14T10:39:50.061Z,20.10
2018-02-14T10:40:55.012Z,20.10
2018-02-14T10:42:00.000Z,20.10
2018-02-14T10:43:05.090Z,20.10
2018-02-14T10:44:10.003Z,20.10
2018-02-14T10:45:14.791Z,20.10
2018-02-14T10:46:19.562Z,20.10
2018-02-14T10:47:24.321Z,20.10
2018-02-14T10:48:29.102Z,20.10
2018-02-14T10:49:34.084Z,20.10
2018-02-14T10:50:38.894Z,20.10
2018-02-14T10:51:43.875Z,20.10
2018-02-14T10:52:48.689Z,20.10
2018-02-14T10:53:53.633Z,20.10
2018-02-14T10:54:58.453Z,20.10
2018-02-14T10:56:03.277Z,20.10
2018-02-14T10:57:08.368Z,20.10
2018-02-14T10:58:13.173Z,20.10
2018-02-14T10:59:18.021Z,20.10
2018-02-14T11:00:22.848Z,20.10
2018-02-14T11:01:27.637Z,20.10
2018-02-14T11:02:32.519Z,20.10
2018-02-14T11:03:37.382Z,20.10
2018-02-14T11:04:42.179Z,20.10
2018-02-14T11:05:46.897Z,20.10
2018-02-14T11:06:51.907Z,20.10
2018-02-14T11:07:56.922Z,20.10
2018-02-14T11:09:01.691Z,20.10
2018-02-14T11:10:06.599Z,20.10
2018-02-14T11:11:11.554Z,20.10
2018-02-14T11:12:16.273Z,20.00
2018-02-14T11:13:21.208Z,20.10
2018-02-14T11:14:25.938Z,20.10
2018-02-14T11:15:30.743Z,20.10
2018-02-14T11:16:35.695Z,20.10
2018-02-14T11:17:40.499Z,20.10
2018-02-14T11:18:45.266Z,20.10
2018-02-14T11:19:50.348Z,20.10
2018-02-14T11:20:55.080Z,20.10
2018-02-14T11:21:59.963Z,20.10
2018-02-14T11:23:05.012Z,20.10
2018-02-14T11:24:09.831Z,20.10
2018-02-14T11:25:14.837Z,20.10
2018-02-14T11:26:19.582Z,20.10
2018-02-14T11:27:24.532Z,20.10
2018-02-14T11:28:29.412Z,20.10
2018-02-14T11:29:34.378Z,20.10
2018-02-14T11:30:39.327Z,20.10
2018-02-14T11:31:44.187Z,20.10
2018-02-14T11:32:48.986Z,20.10
2018-02-14T11:33:53.961Z,20.10
2018-02-14T11:34:58.706Z,20.10
2018-02-14T11:36:06.340Z,20.10
2018-02-14T11:37:11.288Z,20.10
2018-02-14T11:38:16.108Z,20.10
2018-02-14T11:39:21.128Z,20.10
2018-02-14T11:40:26.076Z,20.00
2018-02-14T11:41:31.007Z,20.10
2018-02-14T11:42:35.980Z,20.10
2018-02-14T11:43:40.903Z,20.10
2018-02-14T11:44:45.788Z,20.10
2018-02-14T11:45:50.553Z,20.10
2018-02-14T11:46:55.451Z,20.10
2018-02-14T11:48:00.307Z,20.00
2018-02-14T11:49:05.372Z,20.00
2018-02-14T11:50:10.152Z,20.10
2018-02-14T11:51:15.014Z,20.10
2018-02-14T11:52:19.766Z,20.10
2018-02-14T11:53:24.473Z,20.10
2018-02-14T11:54:29.353Z,20.00
2018-02-14T11:55:34.118Z,20.10
2018-02-14T11:56:38.898Z,20.10
2018-02-14T11:57:43.916Z,20.10
2018-02-14T11:58:48.656Z,20.10
2018-02-14T11:59:53.418Z,20.10
2018-02-14T12:00:58.226Z,20.10
2018-02-14T12:02:03.215Z,20.10
2018-02-14T12:03:08.010Z,20.00
2018-02-14T12:04:12.873Z,20.10
2018-02-14T12:05:17.614Z,20.00
2018-02-14T12:06:22.519Z,20.10
2018-02-14T12:07:27.340Z,20.10
2018-02-14T12:08:32.236Z,20.00
2018-02-14T12:09:37.557Z,20.10
2018-02-14T12:10:42.357Z,20.00
2018-02-14T12:11:47.226Z,20.00
2018-02-14T12:12:52.180Z,20.00
2018-02-14T12:13:57.071Z,20.10
2018-02-14T12:15:01.944Z,20.10
2018-02-14T12:16:06.834Z,20.00
2018-02-14T12:17:11.669Z,20.10
2018-02-14T12:18:16.427Z,20.00
2018-02-14T12:19:21.249Z,20.10
2018-02-14T12:20:26.228Z,20.10
2018-02-14T12:21:31.184Z,20.10
2018-02-14T12:22:36.074Z,20.00
2018-02-14T12:23:40.849Z,20.00
2018-02-14T12:24:45.584Z,20.00
2018-02-14T12:25:50.368Z,20.00
2018-02-14T12:26:55.464Z,20.00
2018-02-14T12:28:00.583Z,20.10
2018-02-14T12:29:05.375Z,20.10
2018-02-14T12:30:10.393Z,20.00
2018-02-14T12:31:15.356Z,20.10
2018-02-14T12:32:20.184Z,20.00
2018-02-14T12:33:24.966Z,20.00
2018-02-14T12:34:29.903Z,20.10
2018-02-14T12:35:34.796Z,20.00
2018-02-14T12:36:39.572Z,20.00
2018-02-14T12:37:44.644Z,20.00
2018-02-14T12:38:49.515Z,20.00
2018-02-14T12:39:54.576Z,20.00
2018-02-14T12:40:59.442Z,20.00
2018-02-14T12:42:04.286Z,20.00
2018-02-14T12:43:09.136Z,20.10
2018-02-14T12:44:13.913Z,20.00
2018-02-14T12:45:18.889Z,20.00
2018-02-14T12:46:23.783Z,20.00
2018-02-14T12:47:29.277Z,20.10
2018-02-14T12:48:33.980Z,20.00
2018-02-14T12:49:38.808Z,20.10
2018-02-14T12:50:43.730Z,20.00
2018-02-14T12:51:48.433Z,20.00
2018-02-14T12:52:53.297Z,20.00
2018-02-14T12:53:58.128Z,20.00
2018-02-14T12:55:02.848Z,20.00
2018-02-14T12:56:07.856Z,20.00
2018-02-14T12:57:12.637Z,20.00
2018-02-14T12:58:17.616Z,20.00
2018-02-14T12:59:22.409Z,20.10
2018-02-14T13:00:27.270Z,20.10
2018-02-14T13:01:32.059Z,20.10
2018-02-14T13:02:36.987Z,20.10
2018-02-14T13:03:42.059Z,20.00
2018-02-14T13:04:46.859Z,20.00
2018-02-14T13:05:51.649Z,20.00
2018-02-14T13:06:56.451Z,20.00
2018-02-14T13:08:01.596Z,20.00
2018-02-14T13:09:06.525Z,20.00
2018-02-14T13:10:11.469Z,20.00
2018-02-14T13:11:16.387Z,20.00
2018-02-14T13:12:21.188Z,20.00
2018-02-14T13:13:25.971Z,20.00
2018-02-14T13:14:30.752Z,20.00
2018-02-14T13:15:35.677Z,20.00
2018-02-14T13:16:40.462Z,20.00
2018-02-14T13:17:45.436Z,20.00
2018-02-14T13:18:50.225Z,20.00
2018-02-14T13:19:55.171Z,20.00
2018-02-14T13:20:59.965Z,20.10
2018-02-14T13:22:04.903Z,20.00
2018-02-14T13:23:09.742Z,20.00
2018-02-14T13:24:14.672Z,20.10
2018-02-14T13:25:19.576Z,20.10
2018-02-14T13:26:24.680Z,20.10
2018-02-14T13:27:29.516Z,20.10
2018-02-14T13:28:34.434Z,20.00
2018-02-14T13:29:39.333Z,20.10
2018-02-14T13:30:44.309Z,20.10
2018-02-14T13:31:50.129Z,20.00
2018-02-14T13:32:54.965Z,20.10
2018-02-14T13:33:59.998Z,20.10
2018-02-14T13:35:04.899Z,20.10
2018-02-14T13:36:09.810Z,20.10
2018-02-14T13:37:14.812Z,20.10
2018-02-14T13:38:19.624Z,20.10
2018-02-14T13:39:24.636Z,20.00
2018-02-14T13:40:29.626Z,20.00
2018-02-14T13:41:34.450Z,20.00
2018-02-14T13:42:39.206Z,20.00
2018-02-14T13:43:44.077Z,20.10
2018-02-14T13:44:49.216Z,20.00
2018-02-14T13:45:54.090Z,20.10
2018-02-14T13:46:58.938Z,20.10
2018-02-14T13:48:03.741Z,20.10
2018-02-14T13:49:08.680Z,20.10
2018-02-14T13:50:13.674Z,20.10
2018-02-14T13:51:18.635Z,20.10
2018-02-14T13:52:23.599Z,20.10
2018-02-14T13:53:28.549Z,20.10
2018-02-14T13:54:33.390Z,20.10
2018-02-14T13:55:38.304Z,20.00
2018-02-14T13:56:43.307Z,20.10
2018-02-14T13:57:48.255Z,20.20